createdAt,value
2022-12-19T00:00:37.720Z,52.16
2022-12-19T00:03:07.551Z,52.65
2022-12-19T00:05:39.217Z,52.58
2022-12-19T00:08:17.191Z,52.47
2022-12-19T00:10:55.883Z,52.59
2022-12-19T00:13:24.249Z,52.42
2022-12-19T00:15:52.883Z,52.07
2022-12-19T00:18:22.937Z,52.61
2022-12-19T00:21:02.617Z,52.34
2022-12-19T00:23:33.663Z,52.40
2022-12-19T00:26:13.925Z,52.71
2022-12-19T00:28:43.316Z,52.50
2022-12-19T00:31:15.667Z,52.42
2022-12-19T00:33:45.933Z,52.47
2022-12-19T00:36:18.119Z,52.31
2022-12-19T00:38:52.663Z,52.58
2022-12-19T00:41:23.708Z,52.59
2022-12-19T00:43:54.893Z,52.80
2022-12-19T00:46:23.377Z,52.63
2022-12-19T00:48:53.131Z,52.44
2022-12-19T00:51:24.157Z,52.85
2022-12-19T00:53:54.680Z,52.64
2022-12-19T00:56:25.511Z,52.77
2022-12-19T00:58:55.272Z,52.77
2022-12-19T01:01:27.202Z,52.44
2022-12-19T01:04:27.322Z,52.51
2022-12-19T01:06:47.268Z,52.64
2022-12-19T01:09:16.800Z,52.90
2022-12-19T01:12:03.280Z,52.82
2022-12-19T01:14:31.518Z,52.90
2022-12-19T01:16:59.778Z,53.06
2022-12-19T01:19:29.836Z,52.75
2022-12-19T01:21:58.100Z,52.67
2022-12-19T01:24:27.272Z,52.82
2022-12-19T01:26:55.507Z,52.45
2022-12-19T01:29:23.821Z,52.49
2022-12-19T01:31:52.104Z,52.31
2022-12-19T01:34:20.439Z,52.19
2022-12-19T01:36:50.386Z,52.41
2022-12-19T01:39:18.697Z,52.56
2022-12-19T01:41:46.869Z,52.38
2022-12-19T01:44:15.137Z,52.42
2022-12-19T01:46:47.509Z,52.34
2022-12-19T01:49:25.033Z,52.39
2022-12-19T01:51:58.075Z,52.23
2022-12-19T01:54:31.362Z,52.42
2022-12-19T01:57:01.119Z,52.46
2022-12-19T01:59:34.921Z,52.48
2022-12-19T02:02:13.174Z,52.63
2022-12-19T02:04:45.934Z,52.51
2022-12-19T02:07:16.585Z,52.48
2022-12-19T02:09:46.850Z,52.66
2022-12-19T02:12:15.510Z,52.57
2022-12-19T02:14:44.290Z,52.36
2022-12-19T02:17:20.853Z,52.42
2022-12-19T02:20:37.426Z,52.27
2022-12-19T02:23:34.431Z,52.69
2022-12-19T02:26:28.069Z,52.53
2022-12-19T02:29:14.485Z,52.74
2022-12-19T02:31:50.156Z,52.51
2022-12-19T02:34:26.512Z,52.58
2022-12-19T02:36:58.957Z,52.75
2022-12-19T02:39:34.883Z,52.64
2022-12-19T02:42:05.001Z,52.60
2022-12-19T02:44:38.667Z,52.56
2022-12-19T02:47:10.485Z,52.75
2022-12-19T02:49:39.819Z,52.44
2022-12-19T02:52:12.475Z,52.48
2022-12-19T02:54:44.879Z,52.54
2022-12-19T02:57:21.664Z,52.79
2022-12-19T03:00:03.854Z,52.88
2022-12-19T03:02:42.355Z,52.59
2022-12-19T03:05:23.678Z,52.79
2022-12-19T03:07:59.175Z,52.80
2022-12-19T03:10:39.002Z,52.61
2022-12-19T03:13:13.322Z,52.73
2022-12-19T03:15:41.989Z,52.69
2022-12-19T03:18:12.755Z,52.60
2022-12-19T03:20:48.628Z,52.59
2022-12-19T03:23:17.814Z,52.71
2022-12-19T03:25:52.205Z,52.79
2022-12-19T03:28:25.881Z,52.74
2022-12-19T03:30:55.402Z,52.52
2022-12-19T03:33:27.030Z,52.76
2022-12-19T03:35:58.581Z,52.63
2022-12-19T03:38:29.626Z,52.70
2022-12-19T03:40:59.111Z,52.52
2022-12-19T03:43:28.935Z,52.52
2022-12-19T03:46:02.847Z,52.67
2022-12-19T03:48:39.615Z,52.59
2022-12-19T03:51:18.530Z,52.58
2022-12-19T03:53:59.439Z,52.55
2022-12-19T03:56:36.385Z,52.65
2022-12-19T03:59:10.996Z,52.66
2022-12-19T04:01:41.573Z,52.59
2022-12-19T04:04:12.066Z,52.57
2022-12-19T04:06:42.207Z,52.72
2022-12-19T04:09:11.526Z,52.56
2022-12-19T04:11:46.546Z,52.61
2022-12-19T04:14:21.114Z,52.66
2022-12-19T04:16:56.797Z,52.54
2022-12-19T04:19:33.255Z,52.51
2022-12-19T04:22:09.105Z,52.44
2022-12-19T04:24:41.183Z,52.45
2022-12-19T04:27:11.909Z,52.39
2022-12-19T04:29:40.831Z,52.34
2022-12-19T04:32:10.631Z,52.54
2022-12-19T04:34:43.027Z,52.30
2022-12-19T04:37:12.587Z,52.43
2022-12-19T04:39:41.121Z,52.34
2022-12-19T04:42:09.366Z,52.35
2022-12-19T04:44:37.799Z,52.25
2022-12-19T04:47:06.107Z,52.11
2022-12-19T04:49:34.395Z,52.43
2022-12-19T04:52:04.202Z,52.40
2022-12-19T04:54:33.937Z,52.35
2022-12-19T04:57:02.240Z,52.48
2022-12-19T04:59:31.473Z,52.42
2022-12-19T05:01:59.912Z,52.66
2022-12-19T05:04:28.707Z,52.32
2022-12-19T05:06:57.566Z,52.34
2022-12-19T05:09:28.295Z,52.57
2022-12-19T05:11:56.551Z,52.54
2022-12-19T05:14:24.944Z,52.54
2022-12-19T05:16:58.892Z,52.37
2022-12-19T05:19:29.789Z,52.44
2022-12-19T05:21:58.299Z,52.53
2022-12-19T05:24:27.992Z,52.50
2022-12-19T05:26:56.258Z,52.66
2022-12-19T05:29:24.650Z,52.79
2022-12-19T05:31:53.916Z,53.13
2022-12-19T05:34:22.317Z,52.96
2022-12-19T05:36:50.576Z,52.88
2022-12-19T05:39:18.842Z,52.77
2022-12-19T05:41:49.317Z,52.89
2022-12-19T05:44:17.895Z,52.83
2022-12-19T05:46:46.182Z,52.91
2022-12-19T05:49:18.731Z,52.87
2022-12-19T05:51:48.410Z,53.03
2022-12-19T05:54:16.872Z,53.02
2022-12-19T05:56:45.139Z,52.99
2022-12-19T05:59:14.776Z,53.05
2022-12-19T06:01:43.179Z,52.88
2022-12-19T06:04:11.394Z,53.08
2022-12-19T06:06:39.653Z,53.33
2022-12-19T06:09:08.228Z,53.46
2022-12-19T06:11:36.500Z,53.50
2022-12-19T06:14:04.750Z,53.61
2022-12-19T06:16:34.398Z,53.55
2022-12-19T06:19:02.697Z,53.38
2022-12-19T06:21:30.970Z,53.48
2022-12-19T06:23:59.212Z,53.42
2022-12-19T06:26:27.566Z,53.44
2022-12-19T06:28:57.165Z,54.12
2022-12-19T06:31:26.394Z,53.79
2022-12-19T06:33:56.861Z,53.52
2022-12-19T06:36:28.474Z,53.46
2022-12-19T06:38:58.929Z,53.45
2022-12-19T06:41:44.964Z,53.54
2022-12-19T06:44:15.999Z,53.58
2022-12-19T06:46:45.316Z,53.50
2022-12-19T06:49:15.343Z,53.46
2022-12-19T06:51:43.641Z,53.45
2022-12-19T06:54:12.292Z,53.39
2022-12-19T06:56:42.508Z,53.34
2022-12-19T06:59:15.057Z,53.29
2022-12-19T07:01:57.004Z,53.54
2022-12-19T07:04:32.486Z,53.24
2022-12-19T07:07:01.304Z,53.00
2022-12-19T07:09:30.852Z,53.34
2022-12-19T07:11:59.135Z,53.18
2022-12-19T07:14:27.455Z,53.09
2022-12-19T07:16:59.265Z,53.00
2022-12-19T07:19:29.733Z,53.13
2022-12-19T07:21:58.462Z,53.09
2022-12-19T07:24:26.712Z,53.02
2022-12-19T07:26:55.023Z,53.14
2022-12-19T07:29:23.340Z,53.15
2022-12-19T07:31:51.615Z,53.22
2022-12-19T07:34:20.129Z,53.20
2022-12-19T07:36:49.801Z,53.23
2022-12-19T07:39:18.063Z,53.15
2022-12-19T07:41:46.353Z,53.24
2022-12-19T07:44:16.506Z,53.33
2022-12-19T07:46:45.103Z,53.28
2022-12-19T07:49:16.961Z,53.34
2022-12-19T07:51:49.257Z,53.28
2022-12-19T07:54:17.537Z,53.07
2022-12-19T07:56:46.424Z,53.29
2022-12-19T07:59:14.786Z,53.08
2022-12-19T08:01:43.137Z,53.26
2022-12-19T08:04:11.526Z,53.08
2022-12-19T08:06:41.577Z,53.38
2022-12-19T08:09:11.329Z,53.30
2022-12-19T08:11:40.054Z,53.12
2022-12-19T08:14:08.322Z,53.14
2022-12-19T08:16:55.635Z,53.07
2022-12-19T08:19:27.583Z,53.19
2022-12-19T08:21:55.996Z,53.13
2022-12-19T08:24:25.585Z,53.03
2022-12-19T08:26:53.817Z,53.01
2022-12-19T08:29:22.515Z,52.95
2022-12-19T08:31:50.925Z,52.82
2022-12-19T08:34:19.283Z,52.51
2022-12-19T08:36:47.608Z,53.05
2022-12-19T08:39:16.022Z,52.81
2022-12-19T08:41:45.775Z,52.89
2022-12-19T08:44:14.112Z,52.91
2022-12-19T08:46:48.103Z,52.93
2022-12-19T08:49:18.731Z,52.60
2022-12-19T08:51:47.082Z,53.17
2022-12-19T08:54:15.733Z,53.12
2022-12-19T08:56:46.873Z,53.10
2022-12-19T08:59:22.181Z,53.03
2022-12-19T09:02:00.288Z,53.02
2022-12-19T09:05:57.509Z,52.88
2022-12-19T09:07:18.147Z,52.95
2022-12-19T09:09:46.636Z,52.91
2022-12-19T09:12:17.228Z,52.61
2022-12-19T09:14:45.860Z,52.74
2022-12-19T09:17:14.331Z,52.63
2022-12-19T09:19:44.528Z,52.93
2022-12-19T09:22:17.315Z,53.04
2022-12-19T09:24:45.793Z,53.17
2022-12-19T09:27:15.621Z,53.06
2022-12-19T09:29:44.733Z,53.01
2022-12-19T09:32:13.470Z,53.02
2022-12-19T09:34:41.841Z,53.27
2022-12-19T09:37:16.258Z,52.95
2022-12-19T09:39:46.651Z,52.69
2022-12-19T09:42:42.604Z,52.98
2022-12-19T09:45:41.148Z,53.11
2022-12-19T09:48:24.147Z,53.02
2022-12-19T09:51:10.601Z,53.11
2022-12-19T09:53:54.424Z,53.11
2022-12-19T09:56:28.276Z,52.93
2022-12-19T09:59:06.263Z,52.88
2022-12-19T10:01:53.525Z,53.13
2022-12-19T10:04:22.910Z,52.92
2022-12-19T10:07:07.916Z,52.76
2022-12-19T10:12:15.474Z,52.81
2022-12-19T10:12:51.322Z,53.46
2022-12-19T10:15:43.817Z,53.31
2022-12-19T10:18:34.244Z,53.13
2022-12-19T10:21:08.877Z,53.02
2022-12-19T10:24:04.511Z,53.22
2022-12-19T10:26:43.327Z,52.97
2022-12-19T10:29:46.830Z,53.19
2022-12-19T10:32:26.490Z,53.17
2022-12-19T10:34:55.092Z,53.34
2022-12-19T10:37:35.248Z,53.32
2022-12-19T10:40:27.240Z,53.25
2022-12-19T10:43:10.500Z,52.84
2022-12-19T10:45:44.248Z,53.36
2022-12-19T10:48:20.033Z,53.36
2022-12-19T10:50:51.471Z,53.19
2022-12-19T10:53:29.704Z,53.48
2022-12-19T10:56:03.915Z,53.25
2022-12-19T10:58:36.650Z,52.91
2022-12-19T11:01:12.916Z,52.77
2022-12-19T11:03:46.457Z,52.63
2022-12-19T11:06:45.256Z,52.49
2022-12-19T11:09:28.908Z,52.33
2022-12-19T11:16:13.104Z,52.17
2022-12-19T11:19:43.709Z,51.94
2022-12-19T11:26:42.541Z,51.81
2022-12-19T11:29:26.685Z,51.55
2022-12-19T11:29:30.356Z,52.09
2022-12-19T11:30:39.549Z,51.58
2022-12-19T11:32:43.550Z,51.59
2022-12-19T11:35:25.254Z,51.70
2022-12-19T11:38:08.483Z,51.62
2022-12-19T11:40:48.452Z,51.42
2022-12-19T11:43:43.837Z,51.78
2022-12-19T11:46:31.795Z,51.61
2022-12-19T11:49:05.741Z,51.93
2022-12-19T11:51:42.751Z,51.79
2022-12-19T11:54:19.827Z,51.76
2022-12-19T11:56:48.123Z,51.24
2022-12-19T11:59:21.004Z,51.58
2022-12-19T12:02:23.844Z,51.03
2022-12-19T12:05:10.693Z,51.44
2022-12-19T12:08:45.617Z,51.47
2022-12-19T12:16:11.704Z,51.43
2022-12-19T12:22:53.854Z,51.60
2022-12-19T12:30:18.073Z,51.41
2022-12-19T12:31:22.106Z,51.76
2022-12-19T12:31:26.566Z,51.47
2022-12-19T12:31:38.594Z,51.50
2022-12-19T12:31:58.824Z,51.57
2022-12-19T12:35:56.309Z,51.78
2022-12-19T12:36:51.511Z,51.69
2022-12-19T12:38:24.605Z,51.93
2022-12-19T12:41:09.825Z,51.78
2022-12-19T12:43:59.346Z,51.85
2022-12-19T12:46:33.281Z,51.53
2022-12-19T12:49:06.288Z,51.35
2022-12-19T12:51:36.922Z,51.61
2022-12-19T12:54:09.607Z,51.41
2022-12-19T12:56:40.465Z,51.20
2022-12-19T12:59:24.615Z,51.23
2022-12-19T13:01:56.196Z,50.98
2022-12-19T13:04:32.799Z,51.23
2022-12-19T13:07:30.723Z,51.24
2022-12-19T13:10:22.447Z,50.99
2022-12-19T13:13:14.132Z,51.25
2022-12-19T13:15:44.585Z,50.97
2022-12-19T13:18:40.554Z,51.09
2022-12-19T13:21:10.916Z,51.09
2022-12-19T13:24:16.199Z,50.89
2022-12-19T13:26:52.340Z,50.99
2022-12-19T13:29:53.834Z,51.04
2022-12-19T13:32:24.262Z,50.98
2022-12-19T13:35:17.592Z,50.74
2022-12-19T13:39:59.353Z,50.90
2022-12-19T13:40:58.041Z,50.57
2022-12-19T13:43:47.846Z,50.72
2022-12-19T13:46:34.048Z,50.58
2022-12-19T13:49:08.242Z,51.00
2022-12-19T13:51:47.297Z,50.65
2022-12-19T13:54:24.088Z,51.04
2022-12-19T13:56:53.624Z,50.74
2022-12-19T13:59:25.366Z,50.79
2022-12-19T14:01:56.413Z,50.94
2022-12-19T14:04:31.188Z,50.52
2022-12-19T14:07:02.734Z,50.49
2022-12-19T14:11:27.824Z,50.78
2022-12-19T14:13:39.995Z,50.69
2022-12-19T14:15:36.851Z,50.38
2022-12-19T14:18:45.165Z,50.53
2022-12-19T14:22:04.417Z,50.81
2022-12-19T14:24:17.377Z,50.46
2022-12-19T14:28:18.229Z,50.71
2022-12-19T14:30:29.095Z,50.57
2022-12-19T14:33:45.483Z,50.32
2022-12-19T14:36:10.440Z,50.44
2022-12-19T14:39:23.497Z,50.35
2022-12-19T14:41:08.820Z,50.61
2022-12-19T14:43:59.409Z,50.28
2022-12-19T14:54:10.512Z,50.57
2022-12-19T14:54:13.810Z,50.49
2022-12-19T14:54:25.926Z,50.13
2022-12-19T14:56:13.564Z,50.28
2022-12-19T14:58:52.515Z,50.04
2022-12-19T15:01:25.121Z,50.27
2022-12-19T15:04:49.350Z,50.41
2022-12-19T15:07:08.076Z,50.38
2022-12-19T15:11:09.164Z,50.18
2022-12-19T15:14:50.871Z,50.19
2022-12-19T15:15:59.816Z,50.10
2022-12-19T15:18:39.079Z,50.26
2022-12-19T15:21:11.087Z,49.96
2022-12-19T15:23:39.497Z,49.90
2022-12-19T15:26:16.283Z,50.13
2022-12-19T15:28:49.610Z,49.59
2022-12-19T15:31:34.843Z,49.98
2022-12-19T15:34:46.623Z,49.88
2022-12-19T15:37:13.049Z,50.02
2022-12-19T15:39:42.121Z,49.96
2022-12-19T15:42:21.911Z,50.00
2022-12-19T15:44:52.482Z,49.88
2022-12-19T15:47:31.259Z,50.01
2022-12-19T15:50:02.771Z,50.00
2022-12-19T15:52:31.936Z,49.70
2022-12-19T15:55:00.237Z,49.80
2022-12-19T15:57:32.760Z,49.91
2022-12-19T16:00:03.278Z,49.62
2022-12-19T16:05:24.187Z,49.97
2022-12-19T16:07:53.137Z,50.15
2022-12-19T16:10:21.901Z,50.19
2022-12-19T16:12:55.428Z,49.87
2022-12-19T16:15:27.743Z,50.10
2022-12-19T16:17:58.120Z,49.86
2022-12-19T16:20:29.455Z,49.89
2022-12-19T16:22:58.202Z,50.03
2022-12-19T16:25:34.569Z,50.05
2022-12-19T16:28:07.079Z,49.92
2022-12-19T16:30:36.726Z,49.92
2022-12-19T16:33:17.427Z,50.02
2022-12-19T16:38:34.809Z,50.18
2022-12-19T16:41:03.461Z,50.21
2022-12-19T16:43:37.877Z,50.21
2022-12-19T16:46:08.729Z,50.09
2022-12-19T16:48:37.214Z,50.23
2022-12-19T16:51:05.824Z,50.25
2022-12-19T16:53:34.654Z,50.22
2022-12-19T16:56:04.702Z,50.07
2022-12-19T16:58:39.646Z,50.29
2022-12-19T17:01:11.855Z,50.30
2022-12-19T17:03:42.874Z,50.44
2022-12-19T17:06:14.125Z,50.01
2022-12-19T17:08:42.981Z,50.43
2022-12-19T17:11:24.585Z,50.38
2022-12-19T17:14:00.572Z,50.40
2022-12-19T17:16:31.080Z,50.50
2022-12-19T17:19:00.165Z,50.14
2022-12-19T17:21:28.557Z,50.59
2022-12-19T17:23:57.005Z,50.49
2022-12-19T17:26:25.377Z,50.45
2022-12-19T17:28:55.862Z,50.53
2022-12-19T17:31:28.131Z,50.89
2022-12-19T17:33:58.050Z,50.79
2022-12-19T17:36:34.626Z,50.84
2022-12-19T17:39:03.601Z,50.92
2022-12-19T17:41:32.525Z,50.56
2022-12-19T17:44:02.242Z,50.61
2022-12-19T17:46:32.827Z,50.65
2022-12-19T17:49:01.165Z,50.65
2022-12-19T17:51:29.488Z,50.76
2022-12-19T17:53:57.947Z,51.02
2022-12-19T17:56:26.267Z,50.61
2022-12-19T17:58:55.774Z,50.53
2022-12-19T18:01:26.734Z,50.60
2022-12-19T18:03:56.401Z,50.95
2022-12-19T18:06:24.757Z,50.63
2022-12-19T18:08:53.060Z,50.59
2022-12-19T18:11:25.045Z,50.33
2022-12-19T18:13:54.720Z,50.32
2022-12-19T18:16:30.887Z,50.47
2022-12-19T18:18:59.394Z,50.54
2022-12-19T18:21:27.762Z,50.64
2022-12-19T18:23:56.107Z,50.61
2022-12-19T18:26:24.738Z,50.63
2022-12-19T18:28:54.489Z,50.68
2022-12-19T18:31:27.310Z,50.42
2022-12-19T18:34:00.852Z,50.66
2022-12-19T18:36:41.743Z,50.40
2022-12-19T18:39:21.059Z,50.74
2022-12-19T18:41:50.155Z,50.74
2022-12-19T18:44:18.861Z,50.77
2022-12-19T18:46:50.893Z,50.53
2022-12-19T18:49:19.898Z,50.69
2022-12-19T18:51:48.318Z,50.50
2022-12-19T18:54:19.476Z,50.66
2022-12-19T18:56:48.070Z,50.48
2022-12-19T18:59:16.426Z,50.65
2022-12-19T19:01:48.398Z,50.45
2022-12-19T19:04:18.116Z,50.82
2022-12-19T19:06:51.565Z,50.85
2022-12-19T19:09:22.605Z,50.63
2022-12-19T19:11:50.941Z,50.78
2022-12-19T19:14:19.302Z,50.78
2022-12-19T19:16:49.098Z,50.54
2022-12-19T19:19:19.615Z,50.75
2022-12-19T19:21:48.182Z,50.83
2022-12-19T19:24:19.070Z,50.51
2022-12-19T19:26:49.682Z,50.38
2022-12-19T19:29:19.558Z,50.76
2022-12-19T19:31:51.511Z,50.73
2022-12-19T19:34:23.335Z,50.60
2022-12-19T19:36:56.055Z,50.62
2022-12-19T19:39:25.100Z,50.43
2022-12-19T19:41:53.723Z,50.36
2022-12-19T19:44:22.104Z,50.45
2022-12-19T19:46:52.044Z,50.46
2022-12-19T19:49:21.869Z,50.43
2022-12-19T19:51:50.387Z,50.57
2022-12-19T19:54:19.119Z,50.64
2022-12-19T19:56:47.440Z,50.38
2022-12-19T19:59:15.835Z,50.64
2022-12-19T20:01:44.284Z,50.44
2022-12-19T20:04:14.204Z,50.33
2022-12-19T20:06:42.515Z,50.24
2022-12-19T20:09:10.779Z,50.59
2022-12-19T20:11:39.120Z,50.48
2022-12-19T20:14:07.535Z,50.35
2022-12-19T20:16:36.608Z,50.31
2022-12-19T20:19:05.076Z,50.65
2022-12-19T20:21:34.821Z,50.42
2022-12-19T20:24:03.330Z,50.56
2022-12-19T20:26:32.181Z,50.45
2022-12-19T20:29:00.495Z,50.73
2022-12-19T20:31:29.016Z,50.74
2022-12-19T20:33:57.727Z,50.55
2022-12-19T20:36:26.283Z,50.54
2022-12-19T20:38:56.341Z,50.70
2022-12-19T20:41:24.696Z,50.41
2022-12-19T20:43:54.272Z,50.63
2022-12-19T20:46:24.129Z,50.57
2022-12-19T20:48:53.996Z,50.39
2022-12-19T20:51:23.077Z,50.49
2022-12-19T20:53:55.650Z,50.72
2022-12-19T20:56:25.918Z,50.66
2022-12-19T20:58:54.798Z,50.38
2022-12-19T21:01:26.306Z,50.51
2022-12-19T21:03:54.897Z,50.65
2022-12-19T21:06:27.155Z,50.39
2022-12-19T21:08:57.780Z,50.30
2022-12-19T21:11:27.376Z,50.43
2022-12-19T21:13:56.055Z,50.73
2022-12-19T21:16:25.127Z,50.49
2022-12-19T21:18:53.599Z,50.62
2022-12-19T21:21:25.282Z,50.28
2022-12-19T21:23:54.636Z,50.49
2022-12-19T21:26:26.981Z,50.84
2022-12-19T21:28:57.974Z,50.50
2022-12-19T21:31:29.807Z,50.71
2022-12-19T21:34:01.037Z,50.62
2022-12-19T21:36:31.136Z,50.49
2022-12-19T21:39:01.987Z,50.67
2022-12-19T21:41:32.547Z,50.71
2022-12-19T21:44:01.502Z,50.48
2022-12-19T21:46:33.137Z,50.65
2022-12-19T21:49:03.365Z,50.84
2022-12-19T21:51:33.221Z,50.67
2022-12-19T21:54:03.637Z,50.56
2022-12-19T21:56:36.413Z,50.64
2022-12-19T21:59:07.743Z,50.66
2022-12-19T22:01:36.368Z,50.75
2022-12-19T22:04:08.135Z,50.58
2022-12-19T22:06:38.867Z,51.02
2022-12-19T22:09:10.115Z,50.81
2022-12-19T22:11:39.998Z,50.89
2022-12-19T22:14:08.704Z,50.85
2022-12-19T22:16:37.595Z,50.98
2022-12-19T22:19:06.788Z,50.76
2022-12-19T22:21:35.491Z,51.15
2022-12-19T22:24:06.059Z,51.17
2022-12-19T22:26:35.514Z,51.19
2022-12-19T22:29:10.172Z,51.16
2022-12-19T22:31:40.056Z,51.01
2022-12-19T22:34:11.665Z,51.09
2022-12-19T22:36:41.904Z,50.89
2022-12-19T22:39:13.296Z,50.91
2022-12-19T22:41:42.899Z,50.90
2022-12-19T22:44:18.368Z,51.14
2022-12-19T22:46:46.944Z,51.22
2022-12-19T22:49:15.631Z,51.01
2022-12-19T22:51:43.889Z,51.07
2022-12-19T22:54:12.682Z,51.18
2022-12-19T22:56:41.250Z,51.25
2022-12-19T22:59:11.165Z,51.10
2022-12-19T23:01:42.914Z,51.08
2022-12-19T23:04:16.467Z,51.28
2022-12-19T23:06:45.565Z,51.27
2022-12-19T23:09:17.111Z,51.31
2022-12-19T23:11:50.172Z,51.36
2022-12-19T23:14:20.833Z,51.54
2022-12-19T23:16:51.181Z,51.66
2022-12-19T23:19:19.602Z,51.37
2022-12-19T23:21:48.075Z,51.69
2022-12-19T23:24:16.724Z,51.72
2022-12-19T23:26:45.116Z,51.92
2022-12-19T23:29:16.236Z,51.61
2022-12-19T23:31:48.976Z,51.61
2022-12-19T23:34:18.055Z,51.63
2022-12-19T23:39:35.577Z,51.76
2022-12-19T23:42:03.974Z,51.64
2022-12-19T23:44:32.372Z,51.75
2022-12-19T23:47:03.833Z,51.71
2022-12-19T23:49:33.116Z,51.61
2022-12-19T23:52:01.517Z,51.89
2022-12-19T23:54:29.915Z,51.81
2022-12-19T23:56:58.247Z,51.85
2022-12-19T23:59:26.595Z,51.90
